Time;durP1;ratioP1;P1;durP2;ratioP2;P2;SDS_P1;SDS_P2;PMS_P1;PMS_P2;Temp;Humidity;BMP_temperature;BMP_pressure;BME280_temperature;BME280_humidity;BME280_pressure;Samples;Min_cycle;Max_cycle;Signal;HPM_P1;HPM_P2
2022/03/07 00:01:50;;;;;;;10.37;8.17;;;2.00;94.30;;;;;;5067663;28;20432;-68
2022/03/07 00:04:17;;;;;;;9.60;8.03;;;2.00;94.30;;;;;;5069055;28;20197;-68
2022/03/07 00:06:44;;;;;;;9.40;7.70;;;2.00;94.20;;;;;;5062349;28;20166;-68
2022/03/07 00:09:09;;;;;;;9.27;8.17;;;1.90;94.10;;;;;;5063040;28;20457;-67
2022/03/07 00:11:35;;;;;;;12.03;8.97;;;1.90;94.70;;;;;;5062771;28;20432;-68
2022/03/07 00:14:01;;;;;;;12.13;8.60;;;2.00;94.40;;;;;;5059137;28;20182;-68
2022/03/07 00:16:28;;;;;;;10.87;7.97;;;2.20;94.40;;;;;;5058849;28;20401;-70
2022/03/07 00:18:53;;;;;;;8.40;7.47;;;2.20;94.10;;;;;;5064468;28;20417;-70
2022/03/07 00:21:20;;;;;;;8.40;7.40;;;2.20;94.00;;;;;;5073264;28;20475;-67
2022/03/07 00:23:46;;;;;;;7.50;6.70;;;2.30;94.00;;;;;;5072744;28;20175;-68
2022/03/07 00:26:11;;;;;;;9.77;7.00;;;2.30;94.20;;;;;;5071842;28;20424;-69
2022/03/07 00:28:37;;;;;;;8.93;8.03;;;2.20;94.40;;;;;;5072472;28;20238;-71
2022/03/07 00:31:03;;;;;;;8.23;7.00;;;2.30;94.40;;;;;;5073774;28;20202;-68
2022/03/07 00:33:29;;;;;;;9.83;8.10;;;2.30;94.20;;;;;;5073535;28;20190;-68
2022/03/07 00:35:54;;;;;;;8.57;6.63;;;2.40;94.10;;;;;;5064490;28;20438;-69
2022/03/07 00:38:20;;;;;;;9.70;7.77;;;2.50;94.00;;;;;;5059873;28;20257;-68
2022/03/07 00:40:45;;;;;;;10.57;7.73;;;2.60;93.80;;;;;;5058281;28;20721;-70
2022/03/07 00:43:11;;;;;;;9.90;8.30;;;2.70;93.60;;;;;;5057515;28;20222;-67
2022/03/07 00:45:36;;;;;;;12.00;8.10;;;2.70;93.50;;;;;;5058019;28;20183;-67
2022/03/07 00:48:02;;;;;;;10.07;8.13;;;2.70;93.40;;;;;;5058067;28;20186;-68
2022/03/07 00:50:28;;;;;;;9.80;7.33;;;2.80;93.40;;;;;;5057989;28;20638;-67
2022/03/07 00:52:53;;;;;;;9.13;7.60;;;2.80;93.30;;;;;;5075656;22;20255;-69
2022/03/07 00:55:19;;;;;;;9.70;8.00;;;2.80;93.30;;;;;;5048253;28;20255;-69
2022/03/07 00:57:44;;;;;;;14.60;7.97;;;2.90;93.20;;;;;;5036526;28;20171;-69
2022/03/07 01:00:10;;;;;;;9.33;8.20;;;2.90;93.20;;;;;;5019394;28;20195;-70
2022/03/07 01:02:35;;;;;;;9.70;8.13;;;3.00;93.10;;;;;;5036931;28;20185;-69
2022/03/07 01:05:01;;;;;;;8.40;7.50;;;3.00;92.90;;;;;;5037240;28;20402;-69
2022/03/07 01:07:27;;;;;;;9.07;8.17;;;3.00;92.80;;;;;;5019272;28;20802;-70
2022/03/07 01:09:53;;;;;;;8.40;7.60;;;3.00;92.80;;;;;;5036380;28;20266;-69
2022/03/07 01:12:19;;;;;;;9.50;8.40;;;3.10;92.80;;;;;;5036332;28;20418;-69
2022/03/07 01:14:44;;;;;;;10.53;8.70;;;3.10;92.70;;;;;;5037018;28;20169;-69
2022/03/07 01:17:10;;;;;;;10.53;8.80;;;3.20;92.60;;;;;;5036730;28;20694;-69
2022/03/07 01:19:36;;;;;;;13.20;8.63;;;3.20;92.40;;;;;;5036824;28;20172;-69
2022/03/07 01:22:01;;;;;;;9.93;8.83;;;3.00;92.50;;;;;;5036272;28;20264;-69
2022/03/07 01:24:28;;;;;;;8.63;7.70;;;3.10;92.50;;;;;;5036204;28;20723;-69
2022/03/07 01:26:53;;;;;;;10.73;7.47;;;3.10;92.20;;;;;;5036592;28;20173;-69
2022/03/07 01:29:19;;;;;;;8.37;7.20;;;3.00;92.10;;;;;;5036043;28;21000;-69
2022/03/07 01:31:45;;;;;;;11.57;8.07;;;2.90;92.10;;;;;;5036357;28;20168;-68
2022/03/07 01:34:13;;;;;;;8.53;7.00;;;2.90;92.40;;;;;;5036171;28;20184;-68
2022/03/07 01:36:38;;;;;;;7.33;6.57;;;2.90;92.30;;;;;;5035851;28;20225;-68
2022/03/07 01:39:04;;;;;;;8.17;7.37;;;3.00;92.20;;;;;;5036556;28;20419;-70
2022/03/07 01:41:29;;;;;;;7.90;7.07;;;3.00;92.00;;;;;;5036349;28;20236;-67
2022/03/07 01:43:55;;;;;;;7.47;6.73;;;3.00;92.00;;;;;;5035476;28;20188;-68
2022/03/07 01:46:20;;;;;;;10.00;7.63;;;2.90;91.90;;;;;;5035483;28;20583;-68
2022/03/07 01:48:46;;;;;;;10.07;7.17;;;2.80;92.00;;;;;;5036113;28;20180;-69
2022/03/07 01:51:14;;;;;;;6.77;6.07;;;2.90;92.10;;;;;;5036067;28;20516;-69
2022/03/07 01:53:40;;;;;;;6.93;5.97;;;2.80;92.20;;;;;;5035639;28;20669;-69
2022/03/07 01:56:07;;;;;;;7.60;6.20;;;2.90;92.40;;;;;;5035731;28;20407;-69
2022/03/07 01:58:32;;;;;;;6.60;5.73;;;2.90;92.20;;;;;;5035971;28;20168;-68
2022/03/07 02:00:58;;;;;;;8.37;5.50;;;3.00;92.00;;;;;;5035683;28;20975;-69
2022/03/07 02:03:23;;;;;;;6.53;5.40;;;3.00;92.00;;;;;;5035615;28;20187;-68
2022/03/07 02:05:50;;;;;;;6.30;4.70;;;3.10;91.70;;;;;;5035691;28;20183;-68
2022/03/07 02:08:16;;;;;;;5.73;4.30;;;3.10;91.60;;;;;;5035472;28;20215;-69
2022/03/07 02:10:42;;;;;;;4.23;3.83;;;3.10;91.40;;;;;;5035176;28;20863;-68
2022/03/07 02:13:17;;;;;;;5.33;4.53;;;3.10;91.20;;;;;;5034819;28;20246;-69
2022/03/07 02:15:43;;;;;;;6.40;4.30;;;3.10;90.90;;;;;;5035421;28;20404;-69
2022/03/07 02:18:09;;;;;;;3.90;3.50;;;3.10;91.00;;;;;;5035585;28;20439;-69
2022/03/07 02:20:36;;;;;;;5.60;4.80;;;3.00;90.90;;;;;;5035546;28;20170;-69
2022/03/07 02:23:01;;;;;;;4.60;4.20;;;2.90;91.10;;;;;;5034916;28;20286;-69
2022/03/07 02:25:27;;;;;;;4.77;4.13;;;2.90;91.00;;;;;;5034564;28;20517;-70
2022/03/07 02:27:52;;;;;;;4.67;4.27;;;2.90;90.80;;;;;;5034890;28;20175;-69
2022/03/07 02:30:18;;;;;;;4.77;4.33;;;2.90;90.90;;;;;;5035012;28;20203;-68
2022/03/07 02:32:44;;;;;;;4.57;4.17;;;2.90;90.80;;;;;;5033882;28;20264;-69
2022/03/07 02:35:14;;;;;;;5.57;4.20;;;2.90;90.80;;;;;;5034301;28;20540;-69
2022/03/07 02:37:40;;;;;;;4.00;3.63;;;3.00;90.80;;;;;;5034682;28;20825;-68
2022/03/07 02:40:06;;;;;;;4.50;4.17;;;3.00;90.80;;;;;;5034955;28;20412;-69
2022/03/07 02:42:32;;;;;;;4.80;4.27;;;3.00;90.70;;;;;;5034969;28;20829;-69
2022/03/07 02:44:57;;;;;;;4.97;4.47;;;3.10;90.60;;;;;;5035091;28;20438;-69
2022/03/07 02:47:23;;;;;;;5.00;4.40;;;3.10;90.40;;;;;;5035190;28;20181;-69
2022/03/07 02:49:50;;;;;;;5.20;4.73;;;3.10;90.30;;;;;;5034668;28;20223;-68
2022/03/07 02:52:15;;;;;;;4.83;4.43;;;3.10;90.10;;;;;;5034832;28;20550;-69
2022/03/07 02:54:41;;;;;;;4.80;4.37;;;3.10;90.10;;;;;;5035922;28;20447;-68
2022/03/07 02:57:07;;;;;;;4.67;4.00;;;3.10;90.00;;;;;;5035311;28;20194;-69
2022/03/07 02:59:33;;;;;;;4.57;4.17;;;3.10;90.10;;;;;;5035169;28;20577;-68
2022/03/07 03:01:59;;;;;;;4.80;4.30;;;3.10;90.10;;;;;;5034416;28;20417;-69
2022/03/07 03:04:24;;;;;;;5.13;4.40;;;3.00;90.10;;;;;;5034403;28;20439;-69
2022/03/07 03:06:50;;;;;;;5.20;4.50;;;3.00;90.00;;;;;;5034480;28;20195;-69
2022/03/07 03:09:15;;;;;;;5.67;5.10;;;2.90;90.30;;;;;;5034260;28;20568;-68
2022/03/07 03:11:41;;;;;;;8.87;4.80;;;2.90;90.40;;;;;;5034348;28;20657;-69
2022/03/07 03:14:06;;;;;;;5.33;4.83;;;2.90;90.40;;;;;;5034570;28;20193;-68
2022/03/07 03:16:32;;;;;;;4.90;4.40;;;2.80;90.40;;;;;;5035019;28;20177;-68
2022/03/07 03:18:58;;;;;;;5.53;5.03;;;2.80;90.40;;;;;;5034397;28;20178;-68
2022/03/07 03:21:23;;;;;;;5.63;4.60;;;2.80;90.40;;;;;;5034612;28;20409;-69
2022/03/07 03:23:49;;;;;;;5.23;4.67;;;2.80;90.40;;;;;;5016678;28;20219;-69
2022/03/07 03:26:15;;;;;;;4.20;3.90;;;2.80;90.40;;;;;;5034288;28;20176;-68
2022/03/07 03:28:41;;;;;;;5.43;4.50;;;2.80;90.50;;;;;;5035096;28;20403;-68
2022/03/07 03:31:11;;;;;;;4.50;4.10;;;2.90;90.50;;;;;;5034762;28;20696;-69
2022/03/07 03:33:37;;;;;;;5.37;4.40;;;3.00;90.40;;;;;;5016581;28;20794;-68
2022/03/07 03:36:03;;;;;;;5.87;5.03;;;3.00;90.30;;;;;;5034800;28;20405;-68
2022/03/07 03:38:29;;;;;;;4.80;4.40;;;2.90;90.20;;;;;;5034711;28;20408;-68
2022/03/07 03:40:54;;;;;;;6.30;4.30;;;2.90;90.30;;;;;;5034552;28;20456;-68
2022/03/07 03:43:21;;;;;;;4.87;4.00;;;3.00;90.20;;;;;;5033608;28;20253;-69
2022/03/07 03:45:47;;;;;;;4.70;4.30;;;2.90;90.00;;;;;;5036644;28;20187;-69
2022/03/07 03:48:12;;;;;;;6.23;4.13;;;2.80;90.00;;;;;;5038061;28;20489;-69
2022/03/07 03:50:38;;;;;;;4.63;4.23;;;2.70;90.10;;;;;;5036598;28;20198;-69
2022/03/07 03:53:03;;;;;;;4.17;3.83;;;2.80;90.30;;;;;;5037105;28;20250;-69
2022/03/07 03:55:29;;;;;;;4.90;4.50;;;2.80;90.30;;;;;;5037947;28;20177;-68
2022/03/07 03:57:55;;;;;;;4.27;3.87;;;2.80;90.20;;;;;;5038010;28;20520;-72
2022/03/07 04:00:20;;;;;;;4.10;3.80;;;2.80;90.20;;;;;;5038212;28;20184;-68
2022/03/07 04:02:46;;;;;;;4.20;3.90;;;2.90;90.20;;;;;;5038275;28;20193;-68
2022/03/07 04:05:13;;;;;;;5.77;4.00;;;2.90;90.10;;;;;;5019647;28;20507;-68
2022/03/07 04:07:39;;;;;;;6.13;4.20;;;2.80;90.10;;;;;;5036835;28;20172;-67
2022/03/07 04:10:06;;;;;;;4.20;3.80;;;2.80;90.00;;;;;;5037605;28;20450;-68
2022/03/07 04:12:31;;;;;;;4.67;4.20;;;2.80;90.10;;;;;;5037172;28;20398;-68
2022/03/07 04:14:57;;;;;;;6.83;4.30;;;2.80;90.00;;;;;;5037715;28;20413;-68
2022/03/07 04:17:22;;;;;;;3.50;3.20;;;2.80;89.80;;;;;;5037745;28;20181;-68
2022/03/07 04:19:48;;;;;;;7.17;4.10;;;2.80;89.80;;;;;;5037626;28;20191;-67
2022/03/07 04:22:13;;;;;;;4.20;3.80;;;2.80;89.90;;;;;;5037720;28;20229;-69
2022/03/07 04:24:39;;;;;;;4.30;3.90;;;2.80;89.70;;;;;;5037721;28;20199;-69
2022/03/07 04:27:05;;;;;;;5.43;4.00;;;2.90;89.80;;;;;;5035965;28;20298;-68
2022/03/07 04:29:30;;;;;;;4.50;3.80;;;2.90;89.30;;;;;;5037591;28;20249;-69
2022/03/07 04:31:56;;;;;;;3.90;3.50;;;2.80;89.10;;;;;;5037208;28;20190;-68
2022/03/07 04:34:22;;;;;;;4.30;3.53;;;2.90;89.30;;;;;;5036781;28;20186;-69
2022/03/07 04:36:47;;;;;;;4.67;4.10;;;2.80;89.30;;;;;;5037288;28;20424;-68
2022/03/07 04:39:13;;;;;;;4.77;4.30;;;2.90;89.30;;;;;;5038035;28;20175;-68
2022/03/07 04:41:39;;;;;;;4.30;3.90;;;2.80;89.20;;;;;;5037364;28;20639;-69
2022/03/07 04:44:05;;;;;;;3.97;3.67;;;2.90;89.50;;;;;;5037714;28;20191;-68
2022/03/07 04:46:31;;;;;;;4.00;3.57;;;2.80;89.50;;;;;;5037891;28;20421;-68
2022/03/07 04:48:56;;;;;;;4.13;3.73;;;2.90;89.70;;;;;;5037756;28;20424;-69
2022/03/07 04:51:22;;;;;;;4.90;3.63;;;2.90;89.70;;;;;;5038070;28;20187;-69
2022/03/07 04:53:48;;;;;;;5.07;4.57;;;2.90;89.70;;;;;;5037734;28;20219;-70
2022/03/07 04:56:14;;;;;;;4.23;3.80;;;2.90;89.70;;;;;;5037444;28;20183;-70
2022/03/07 04:58:40;;;;;;;4.20;3.90;;;2.90;89.60;;;;;;5038682;28;20418;-69
2022/03/07 05:01:05;;;;;;;4.13;3.73;;;2.90;89.70;;;;;;5038234;28;20413;-70
2022/03/07 05:03:31;;;;;;;4.40;3.77;;;2.90;89.70;;;;;;5047086;28;20449;-68
2022/03/07 05:05:57;;;;;;;4.07;3.67;;;2.90;89.80;;;;;;5059039;28;20186;-67
2022/03/07 05:08:22;;;;;;;5.10;4.10;;;2.80;89.90;;;;;;5059220;28;20232;-67
2022/03/07 05:10:48;;;;;;;4.10;3.70;;;2.90;90.00;;;;;;5058636;28;20206;-68
2022/03/07 05:13:14;;;;;;;4.20;3.77;;;2.80;90.00;;;;;;5058341;28;20198;-65
2022/03/07 05:15:39;;;;;;;4.77;4.27;;;2.80;90.10;;;;;;5043971;28;20171;-70
2022/03/07 05:18:06;;;;;;;14.87;5.70;;;2.80;90.20;;;;;;5037577;28;20181;-70
2022/03/07 05:20:32;;;;;;;5.73;4.57;;;2.80;90.30;;;;;;5037491;28;20667;-70
2022/03/07 05:22:58;;;;;;;5.00;4.00;;;2.80;90.40;;;;;;5037290;28;20951;-69
2022/03/07 05:25:24;;;;;;;7.27;4.10;;;2.80;90.50;;;;;;5037572;28;20438;-69
2022/03/07 05:27:50;;;;;;;4.03;3.60;;;2.70;90.40;;;;;;5036731;28;20401;-70
2022/03/07 05:30:18;;;;;;;4.33;3.93;;;2.70;90.50;;;;;;5037266;28;20445;-70
2022/03/07 05:32:48;;;;;;;5.20;3.70;;;2.70;90.50;;;;;;5037123;28;20286;-70
2022/03/07 05:35:14;;;;;;;4.63;4.23;;;2.70;90.50;;;;;;5037271;28;20773;-70
2022/03/07 05:37:40;;;;;;;5.10;4.60;;;2.70;90.50;;;;;;5037126;28;20403;-70
2022/03/07 05:40:06;;;;;;;7.97;4.60;;;2.70;90.60;;;;;;5036925;28;20414;-69
2022/03/07 05:42:33;;;;;;;4.23;3.90;;;2.70;90.50;;;;;;5036705;28;20409;-70
2022/03/07 05:44:59;;;;;;;5.50;5.00;;;2.70;90.50;;;;;;5036286;28;20922;-69
2022/03/07 05:47:25;;;;;;;4.50;4.10;;;2.70;90.50;;;;;;5035949;28;20471;-69
2022/03/07 05:49:50;;;;;;;5.40;4.10;;;2.70;90.50;;;;;;5036338;28;20218;-70
2022/03/07 05:52:16;;;;;;;4.73;4.33;;;2.70;90.50;;;;;;5036022;28;20641;-69
2022/03/07 05:54:41;;;;;;;5.60;5.10;;;2.70;90.50;;;;;;5036027;28;20201;-70
2022/03/07 05:57:07;;;;;;;4.60;4.20;;;2.60;90.50;;;;;;5036667;28;20168;-69
2022/03/07 05:59:32;;;;;;;5.83;4.53;;;2.60;90.60;;;;;;5036704;28;20177;-70
2022/03/07 06:01:58;;;;;;;5.50;4.57;;;2.60;90.50;;;;;;5037417;28;20174;-69
2022/03/07 06:04:24;;;;;;;7.40;4.60;;;2.60;90.60;;;;;;5037815;28;20525;-69
2022/03/07 06:06:50;;;;;;;5.27;4.77;;;2.60;90.60;;;;;;5020491;28;21019;-68
2022/03/07 06:09:16;;;;;;;6.43;4.83;;;2.50;90.70;;;;;;5057247;28;20270;-67
2022/03/07 06:11:42;;;;;;;6.90;4.70;;;2.40;90.70;;;;;;5055361;28;20436;-69
2022/03/07 06:14:08;;;;;;;7.50;4.60;;;2.40;90.80;;;;;;5052172;28;20194;-69
2022/03/07 06:16:33;;;;;;;4.70;4.30;;;2.30;90.90;;;;;;5055883;28;20163;-68
2022/03/07 06:18:59;;;;;;;5.17;4.67;;;2.30;90.90;;;;;;5051973;28;20214;-70
2022/03/07 06:21:24;;;;;;;5.63;5.17;;;2.40;91.10;;;;;;5035788;28;20254;-69
2022/03/07 06:23:50;;;;;;;4.80;4.40;;;2.40;91.10;;;;;;5034616;28;20225;-68
2022/03/07 06:26:15;;;;;;;4.97;4.50;;;2.40;91.10;;;;;;5035908;28;20244;-69
2022/03/07 06:28:41;;;;;;;7.03;5.40;;;2.40;91.10;;;;;;5035712;28;20187;-69
2022/03/07 06:31:06;;;;;;;7.03;5.57;;;2.40;91.10;;;;;;5035589;28;20215;-69
2022/03/07 06:33:33;;;;;;;5.23;4.63;;;2.40;91.30;;;;;;5017571;28;20294;-68
2022/03/07 06:35:59;;;;;;;10.00;4.43;;;2.30;91.10;;;;;;5035565;28;20182;-70
2022/03/07 06:38:25;;;;;;;5.57;4.60;;;2.30;90.90;;;;;;5036965;28;20431;-70
2022/03/07 06:40:50;;;;;;;7.87;5.90;;;2.40;91.10;;;;;;5036787;28;20250;-70
2022/03/07 06:43:16;;;;;;;7.27;4.70;;;2.40;91.20;;;;;;5036920;28;20200;-70
2022/03/07 06:45:42;;;;;;;6.30;4.80;;;2.40;91.20;;;;;;5060772;28;20477;-70
2022/03/07 06:48:07;;;;;;;8.00;4.70;;;2.40;91.10;;;;;;5053512;28;20206;-70
2022/03/07 06:50:33;;;;;;;4.83;4.07;;;2.50;91.10;;;;;;5055912;28;20226;-70
2022/03/07 06:52:59;;;;;;;7.33;4.63;;;2.40;91.20;;;;;;5054615;28;20261;-69
2022/03/07 06:55:25;;;;;;;10.83;5.20;;;2.40;91.20;;;;;;5049099;28;20236;-70
2022/03/07 06:57:53;;;;;;;5.33;4.83;;;2.50;91.10;;;;;;5049024;28;20428;-67
2022/03/07 07:00:19;;;;;;;5.90;4.70;;;2.50;91.00;;;;;;5071409;28;20492;-70
2022/03/07 07:02:45;;;;;;;5.80;5.07;;;2.50;90.80;;;;;;5073083;28;20441;-69
2022/03/07 07:05:11;;;;;;;7.17;5.07;;;2.50;91.00;;;;;;5070008;28;20441;-70
2022/03/07 07:07:37;;;;;;;4.53;4.07;;;2.50;90.80;;;;;;5073423;22;20876;-68
2022/03/07 07:10:04;;;;;;;5.20;4.70;;;2.50;90.90;;;;;;5043586;28;20486;-70
2022/03/07 07:12:30;;;;;;;4.93;4.53;;;2.50;91.10;;;;;;5033064;28;20421;-69
2022/03/07 07:14:55;;;;;;;5.07;4.60;;;2.60;90.90;;;;;;5033094;28;20934;-68
2022/03/07 07:17:21;;;;;;;5.40;4.30;;;2.60;90.70;;;;;;5032595;28;20203;-68
2022/03/07 07:19:46;;;;;;;4.90;4.50;;;2.60;90.60;;;;;;5034022;28;20184;-70
2022/03/07 07:22:12;;;;;;;5.23;4.57;;;2.60;90.50;;;;;;5036249;28;20546;-70
2022/03/07 07:24:38;;;;;;;5.10;4.63;;;2.70;90.30;;;;;;5036468;28;20595;-69
2022/03/07 07:27:04;;;;;;;5.63;4.57;;;2.70;90.30;;;;;;5036625;28;20442;-69
2022/03/07 07:29:29;;;;;;;4.67;4.20;;;2.70;90.20;;;;;;5036241;28;20282;-70
2022/03/07 07:31:55;;;;;;;5.63;4.67;;;2.80;90.20;;;;;;5036738;28;20286;-69
2022/03/07 07:34:21;;;;;;;5.43;4.87;;;2.80;90.00;;;;;;5036744;28;20729;-71
2022/03/07 07:36:47;;;;;;;8.07;5.00;;;2.80;89.90;;;;;;5037177;28;20187;-70
2022/03/07 07:39:13;;;;;;;4.70;4.30;;;2.80;89.70;;;;;;5036662;28;20440;-69
2022/03/07 07:41:38;;;;;;;4.67;4.37;;;2.90;89.50;;;;;;5018731;28;20611;-67
2022/03/07 07:44:04;;;;;;;6.03;4.67;;;2.90;89.50;;;;;;5036185;28;20169;-69
2022/03/07 07:46:30;;;;;;;6.23;4.50;;;2.90;89.20;;;;;;5036390;28;20176;-70
2022/03/07 07:48:56;;;;;;;5.03;4.53;;;2.90;89.00;;;;;;5036108;28;20177;-69
2022/03/07 07:51:21;;;;;;;5.97;4.80;;;3.00;88.70;;;;;;5036806;28;20169;-68
2022/03/07 07:53:47;;;;;;;5.80;5.23;;;3.00;88.70;;;;;;5036266;28;20409;-68
2022/03/07 07:56:12;;;;;;;4.83;4.43;;;3.10;88.60;;;;;;5036531;28;20213;-69
2022/03/07 07:58:39;;;;;;;5.27;4.27;;;3.10;88.50;;;;;;5019079;28;20192;-68
2022/03/07 08:01:04;;;;;;;4.63;4.23;;;3.20;88.30;;;;;;5036078;28;20591;-68
2022/03/07 08:03:30;;;;;;;4.40;4.10;;;3.20;88.10;;;;;;5035993;28;20411;-68
2022/03/07 08:05:56;;;;;;;7.23;4.87;;;3.20;87.90;;;;;;5036342;28;20178;-71
2022/03/07 08:08:21;;;;;;;5.53;5.03;;;3.20;87.80;;;;;;5036016;28;20214;-68
2022/03/07 08:10:47;;;;;;;5.40;4.90;;;3.30;87.90;;;;;;5044067;28;20563;-71
2022/03/07 08:13:12;;;;;;;5.20;4.70;;;3.30;87.60;;;;;;5037579;28;20291;-70
2022/03/07 08:15:40;;;;;;;4.47;3.63;;;3.40;87.50;;;;;;5040288;28;20172;-70
2022/03/07 08:18:06;;;;;;;4.60;4.17;;;3.40;87.20;;;;;;5037744;28;20327;-69
2022/03/07 08:20:32;;;;;;;5.07;4.57;;;3.40;87.20;;;;;;5036659;28;20430;-68
2022/03/07 08:22:58;;;;;;;4.57;4.17;;;3.50;87.20;;;;;;5035677;28;20466;-68
2022/03/07 08:25:24;;;;;;;4.17;3.87;;;3.50;87.10;;;;;;5036168;28;20407;-70
2022/03/07 08:27:50;;;;;;;6.03;4.40;;;3.50;86.50;;;;;;5017747;28;20496;-69
2022/03/07 08:30:18;;;;;;;4.67;4.27;;;3.50;86.60;;;;;;5035361;28;20220;-69
2022/03/07 08:32:44;;;;;;;4.40;4.00;;;3.50;86.80;;;;;;5034455;28;20840;-69
2022/03/07 08:35:11;;;;;;;6.97;4.70;;;3.60;86.70;;;;;;5018053;28;20420;-69
2022/03/07 08:37:37;;;;;;;5.40;4.20;;;3.70;86.70;;;;;;5018514;28;20242;-68
2022/03/07 08:40:05;;;;;;;5.20;4.70;;;3.70;86.40;;;;;;5035270;28;20432;-67
2022/03/07 08:42:31;;;;;;;4.60;4.20;;;3.80;86.30;;;;;;5035260;28;20467;-69
2022/03/07 08:44:57;;;;;;;5.00;3.80;;;3.90;86.10;;;;;;5035219;28;20781;-68
2022/03/07 08:47:23;;;;;;;4.13;3.60;;;4.00;86.10;;;;;;5035774;28;20792;-70
2022/03/07 08:49:48;;;;;;;8.43;4.70;;;4.10;85.70;;;;;;5036672;28;20468;-69
2022/03/07 08:52:17;;;;;;;5.10;4.00;;;4.20;85.70;;;;;;5018485;28;20638;-70
2022/03/07 08:54:44;;;;;;;5.03;4.27;;;4.30;85.20;;;;;;5035757;28;20917;-68
2022/03/07 08:57:10;;;;;;;4.47;4.07;;;4.20;84.60;;;;;;5035724;28;20433;-69
2022/03/07 08:59:36;;;;;;;4.37;3.90;;;4.20;84.90;;;;;;5017696;28;20445;-69
2022/03/07 09:02:02;;;;;;;4.00;3.60;;;4.30;84.90;;;;;;5034835;28;20416;-68
2022/03/07 09:04:28;;;;;;;4.30;3.90;;;4.30;84.70;;;;;;5035638;28;20420;-69
2022/03/07 09:06:54;;;;;;;4.30;3.90;;;4.40;84.50;;;;;;5034865;28;20461;-69
2022/03/07 09:09:19;;;;;;;4.43;4.00;;;4.50;84.20;;;;;;5035976;28;20199;-69
2022/03/07 09:11:45;;;;;;;5.80;4.43;;;4.50;83.90;;;;;;5035913;28;20513;-70
2022/03/07 09:14:11;;;;;;;4.30;3.90;;;4.50;83.30;;;;;;5035886;28;20544;-67
2022/03/07 09:16:37;;;;;;;3.80;3.50;;;4.50;83.80;;;;;;5034796;28;20432;-68
2022/03/07 09:19:02;;;;;;;5.03;3.53;;;4.60;83.60;;;;;;5035032;28;20194;-69
2022/03/07 09:21:28;;;;;;;4.97;4.40;;;4.70;83.60;;;;;;5035363;28;20174;-68
2022/03/07 09:23:53;;;;;;;4.50;4.10;;;4.70;83.00;;;;;;5034693;28;20472;-69
2022/03/07 09:26:19;;;;;;;4.43;4.03;;;4.60;82.80;;;;;;5034770;28;20822;-70
2022/03/07 09:28:45;;;;;;;4.30;3.90;;;4.70;82.90;;;;;;5042595;28;20178;-68
2022/03/07 09:31:10;;;;;;;4.67;4.03;;;4.80;82.90;;;;;;5042305;28;20204;-68
2022/03/07 09:33:36;;;;;;;4.33;4.03;;;4.90;82.50;;;;;;5038624;28;20690;-68
2022/03/07 09:36:03;;;;;;;5.20;4.50;;;4.90;81.90;;;;;;5036755;28;20247;-69
2022/03/07 09:38:29;;;;;;;3.83;3.53;;;5.00;82.00;;;;;;5035854;28;20609;-69
2022/03/07 09:40:56;;;;;;;7.57;3.77;;;5.10;82.10;;;;;;5018337;28;20839;-70
2022/03/07 09:43:22;;;;;;;4.30;3.90;;;5.20;81.80;;;;;;5035851;28;21013;-70
2022/03/07 09:45:48;;;;;;;3.70;3.40;;;5.30;81.20;;;;;;5001611;28;20425;-71
2022/03/07 09:48:14;;;;;;;4.50;3.83;;;5.30;80.60;;;;;;5035779;28;20483;-68
2022/03/07 09:50:43;;;;;;;4.60;4.20;;;5.30;80.30;;;;;;5042655;28;20461;-69
2022/03/07 09:53:09;;;;;;;4.27;3.87;;;5.40;80.40;;;;;;5036131;28;20179;-69
2022/03/07 09:55:36;;;;;;;4.23;3.70;;;5.30;79.50;;;;;;5035958;28;20406;-69
2022/03/07 09:58:03;;;;;;;4.20;3.80;;;5.30;79.80;;;;;;5035834;28;20433;-72
2022/03/07 10:00:29;;;;;;;4.93;3.40;;;5.50;79.80;;;;;;5036316;28;20418;-68
2022/03/07 10:03:02;;;;;;;4.50;4.00;;;5.60;79.40;;;;;;5038050;28;20405;-68
2022/03/07 10:05:32;;;;;;;5.50;3.40;;;5.80;79.40;;;;;;5044143;28;20187;-69
2022/03/07 10:07:58;;;;;;;3.37;3.10;;;5.70;78.80;;;;;;5043881;28;20445;-70
2022/03/07 10:10:39;;;;;;;4.70;4.30;;;5.80;78.60;;;;;;5046919;28;20465;-69
2022/03/07 10:13:10;;;;;;;4.87;4.33;;;5.80;78.30;;;;;;5029444;28;20229;-69
2022/03/07 10:15:36;;;;;;;3.90;3.60;;;5.80;77.90;;;;;;5041061;28;20410;-68
2022/03/07 10:18:02;;;;;;;3.83;3.53;;;5.90;78.30;;;;;;5035577;28;20949;-69
2022/03/07 10:20:28;;;;;;;4.47;3.97;;;5.90;77.20;;;;;;5036284;28;20413;-69
2022/03/07 10:23:00;;;;;;;4.10;3.80;;;5.90;77.70;;;;;;5038409;28;20497;-70
2022/03/07 10:25:28;;;;;;;5.73;3.80;;;5.90;76.50;;;;;;5049140;28;20413;-70
2022/03/07 10:27:56;;;;;;;4.23;3.93;;;5.90;76.90;;;;;;5050331;28;20426;-69
2022/03/07 10:30:25;;;;;;;4.30;3.90;;;6.00;76.70;;;;;;5050391;28;20465;-70
2022/03/07 10:32:57;;;;;;;4.23;3.93;;;6.10;76.90;;;;;;5051576;28;20405;-70
2022/03/07 10:35:37;;;;;;;3.83;3.53;;;6.30;76.20;;;;;;5051029;28;20385;-69
2022/03/07 10:38:06;;;;;;;4.63;4.00;;;6.30;76.10;;;;;;5049931;28;20424;-69
2022/03/07 10:40:35;;;;;;;4.83;4.33;;;6.40;76.10;;;;;;5038124;28;20764;-69
2022/03/07 10:43:01;;;;;;;6.40;4.33;;;6.60;76.00;;;;;;5036863;28;20410;-69
2022/03/07 10:45:28;;;;;;;4.27;3.87;;;6.70;76.00;;;;;;5036967;28;20496;-69
2022/03/07 10:47:59;;;;;;;5.63;4.20;;;6.80;75.50;;;;;;5035569;28;20493;-69
2022/03/07 10:50:27;;;;;;;3.67;3.37;;;7.00;74.90;;;;;;5034213;28;20503;-68
2022/03/07 10:53:00;;;;;;;3.93;3.63;;;7.00;74.30;;;;;;5033455;28;20410;-68
2022/03/07 10:55:28;;;;;;;3.97;3.63;;;7.10;74.10;;;;;;5036419;28;20404;-69
2022/03/07 10:58:05;;;;;;;3.80;3.50;;;7.10;73.10;;;;;;5037889;28;20435;-69
2022/03/07 11:00:30;;;;;;;6.77;4.70;;;6.80;73.30;;;;;;5037937;28;20420;-69
2022/03/07 11:02:56;;;;;;;5.20;3.97;;;6.90;74.70;;;;;;5037660;28;20422;-69
2022/03/07 11:05:22;;;;;;;5.40;4.23;;;7.00;73.50;;;;;;5039219;28;20252;-69
2022/03/07 11:07:51;;;;;;;4.10;3.77;;;7.00;73.30;;;;;;5037856;28;20207;-69
2022/03/07 11:10:17;;;;;;;5.43;3.87;;;7.00;73.20;;;;;;5038116;28;20456;-68
2022/03/07 11:12:44;;;;;;;4.30;3.90;;;7.20;73.40;;;;;;5037322;28;20914;-69
2022/03/07 11:15:14;;;;;;;8.37;3.90;;;7.20;72.00;;;;;;5018973;28;20507;-68
2022/03/07 11:17:45;;;;;;;3.70;3.40;;;7.30;72.10;;;;;;5037399;28;20420;-68
2022/03/07 11:20:13;;;;;;;3.70;3.30;;;7.20;71.90;;;;;;5037559;28;20449;-69
2022/03/07 11:22:39;;;;;;;4.30;3.77;;;7.30;71.50;;;;;;5036803;28;20768;-70
2022/03/07 11:25:06;;;;;;;8.27;3.93;;;7.30;70.80;;;;;;5037020;28;20492;-70
2022/03/07 11:27:33;;;;;;;5.60;5.03;;;7.30;70.90;;;;;;5019675;28;20635;-69
2022/03/07 11:30:00;;;;;;;4.50;3.60;;;7.30;70.60;;;;;;5036849;28;20983;-69
2022/03/07 11:32:25;;;;;;;5.70;4.20;;;7.40;70.80;;;;;;5037154;28;20410;-70
2022/03/07 11:35:00;;;;;;;3.63;3.33;;;7.40;69.80;;;;;;5036840;28;20454;-69
2022/03/07 11:37:31;;;;;;;7.90;3.50;;;7.40;70.20;;;;;;5036400;28;20507;-69
2022/03/07 11:39:58;;;;;;;4.93;3.97;;;7.60;70.20;;;;;;5036658;28;20418;-69
2022/03/07 11:42:45;;;;;;;3.73;3.43;;;7.70;69.70;;;;;;5036948;28;20420;-70
2022/03/07 11:45:16;;;;;;;3.50;3.30;;;7.60;67.60;;;;;;5036291;28;20433;-69
2022/03/07 11:47:42;;;;;;;5.37;3.07;;;7.60;68.10;;;;;;5036412;28;20531;-69
2022/03/07 11:50:09;;;;;;;3.60;3.30;;;7.60;67.40;;;;;;5035731;28;20844;-69
2022/03/07 11:52:35;;;;;;;3.40;3.03;;;7.70;67.40;;;;;;5036261;28;20796;-70
2022/03/07 11:55:07;;;;;;;4.60;3.00;;;7.70;66.60;;;;;;5036870;28;20449;-68
2022/03/07 11:57:42;;;;;;;5.30;4.20;;;7.40;65.20;;;;;;5036778;28;20419;-70
2022/03/07 12:00:13;;;;;;;3.43;3.13;;;7.20;65.80;;;;;;5036213;28;20435;-69
2022/03/07 12:02:44;;;;;;;3.50;3.10;;;7.10;66.10;;;;;;5036637;28;20974;-69
2022/03/07 12:05:20;;;;;;;3.50;3.10;;;7.10;66.30;;;;;;5036469;28;20421;-68
2022/03/07 12:07:46;;;;;;;3.70;3.40;;;7.30;67.30;;;;;;5036013;28;20449;-68
2022/03/07 12:10:11;;;;;;;2.80;2.60;;;7.50;67.10;;;;;;5036429;28;20454;-68
2022/03/07 12:12:37;;;;;;;9.43;3.27;;;7.60;66.90;;;;;;5038202;28;20175;-70
2022/03/07 12:15:12;;;;;;;3.00;2.80;;;7.60;66.70;;;;;;5037344;28;20560;-70
2022/03/07 12:17:38;;;;;;;3.77;3.47;;;7.60;65.20;;;;;;5035939;28;20196;-69
2022/03/07 12:20:05;;;;;;;4.60;3.20;;;7.60;65.30;;;;;;5036287;28;20465;-68
2022/03/07 12:22:32;;;;;;;4.10;3.33;;;7.60;64.60;;;;;;5036165;28;20185;-69
2022/03/07 12:25:06;;;;;;;3.90;3.07;;;7.60;65.60;;;;;;5036498;28;20468;-70
2022/03/07 12:27:37;;;;;;;3.70;3.23;;;7.60;65.20;;;;;;5037451;28;20435;-70
2022/03/07 12:30:05;;;;;;;6.77;3.13;;;7.70;65.50;;;;;;5018451;28;20984;-69
2022/03/07 12:32:30;;;;;;;2.93;2.73;;;7.80;65.30;;;;;;5036081;28;20410;-68
2022/03/07 12:34:56;;;;;;;3.67;3.37;;;7.80;64.60;;;;;;5037378;28;20429;-69
2022/03/07 12:37:22;;;;;;;3.30;2.93;;;7.80;65.10;;;;;;5036739;28;20225;-69
2022/03/07 12:39:49;;;;;;;4.27;3.40;;;7.80;64.90;;;;;;5018636;28;20178;-70
2022/03/07 12:42:17;;;;;;;3.60;3.03;;;7.90;64.60;;;;;;5037459;28;20428;-69
2022/03/07 12:44:43;;;;;;;3.13;2.90;;;7.90;64.90;;;;;;5036144;28;20408;-68
2022/03/07 12:47:10;;;;;;;4.30;3.40;;;7.90;64.90;;;;;;5036286;28;21011;-69
2022/03/07 12:49:36;;;;;;;3.50;3.20;;;7.90;65.00;;;;;;5036435;28;20506;-69
2022/03/07 12:52:06;;;;;;;3.60;3.20;;;7.90;64.00;;;;;;5035813;28;20409;-69